createdAt,value
2017-04-15T00:00:58.653Z,6.25
2017-04-15T00:01:59.381Z,3.73
2017-04-15T00:02:59.928Z,5.10
2017-04-15T00:04:00.467Z,7.33
2017-04-15T00:05:00.930Z,5.93
2017-04-15T00:06:01.430Z,6.37
2017-04-15T00:07:01.813Z,5.32
2017-04-15T00:08:02.413Z,4.72
2017-04-15T00:09:02.825Z,4.82
2017-04-15T00:10:02.460Z,4.45
2017-04-15T00:11:02.794Z,6.27
2017-04-15T00:12:03.128Z,5.45
2017-04-15T00:13:03.377Z,9.33
2017-04-15T00:14:03.633Z,6.45
2017-04-15T00:15:03.931Z,5.62
2017-04-15T00:16:04.950Z,5.20
2017-04-15T00:17:04.500Z,5.98
2017-04-15T00:18:04.755Z,5.20
2017-04-15T00:19:04.276Z,7.23
2017-04-15T00:20:03.745Z,6.27
2017-04-15T00:21:04.201Z,4.45
2017-04-15T00:22:04.579Z,6.80
2017-04-15T00:23:04.877Z,9.42
2017-04-15T00:24:05.188Z,6.97
2017-04-15T00:25:05.517Z,4.97
2017-04-15T00:26:05.878Z,5.63
2017-04-15T00:27:06.197Z,8.60
2017-04-15T00:28:06.504Z,5.15
2017-04-15T00:29:06.735Z,4.62
2017-04-15T00:30:07.105Z,6.10
2017-04-15T00:31:07.345Z,5.32
2017-04-15T00:32:08.357Z,4.37
2017-04-15T00:33:08.564Z,5.23
2017-04-15T00:34:08.797Z,7.10
2017-04-15T00:35:09.197Z,8.13
2017-04-15T00:36:09.448Z,7.78
2017-04-15T00:37:09.955Z,6.83
2017-04-15T00:38:10.175Z,4.47
2017-04-15T00:39:10.405Z,7.00
2017-04-15T00:40:10.665Z,5.55
2017-04-15T00:41:10.950Z,5.35
2017-04-15T00:42:11.230Z,6.67
2017-04-15T00:43:11.481Z,7.20
2017-04-15T00:44:11.783Z,7.23
2017-04-15T00:45:12.013Z,7.52
2017-04-15T00:46:13.350Z,4.90
2017-04-15T00:47:13.638Z,9.25
2017-04-15T00:48:13.911Z,11.23
2017-04-15T00:49:14.381Z,5.80
2017-04-15T00:50:14.623Z,11.63
2017-04-15T00:51:16.061Z,4.57
2017-04-15T00:52:16.341Z,11.07
2017-04-15T00:53:17.103Z,5.87
2017-04-15T00:54:18.108Z,9.43
2017-04-15T00:55:18.334Z,7.23
2017-04-15T00:56:18.553Z,7.57
2017-04-15T00:57:18.825Z,8.93
2017-04-15T00:58:19.238Z,10.17
2017-04-15T00:59:19.503Z,9.30
2017-04-15T01:00:20.016Z,8.53
2017-04-15T01:01:21.302Z,13.03
2017-04-15T01:02:21.675Z,10.02
2017-04-15T01:03:22.822Z,13.02
2017-04-15T01:04:23.354Z,9.62
2017-04-15T01:05:23.593Z,7.37
2017-04-15T01:06:23.859Z,7.92
2017-04-15T01:07:24.133Z,9.72
2017-04-15T01:08:24.879Z,7.68
2017-04-15T01:09:25.104Z,8.85
2017-04-15T01:10:25.402Z,7.90
2017-04-15T01:11:25.814Z,6.55
2017-04-15T01:12:26.116Z,9.63
2017-04-15T01:13:26.359Z,4.75
2017-04-15T01:14:26.606Z,10.22
2017-04-15T01:15:26.896Z,9.13
2017-04-15T01:16:27.132Z,7.97
2017-04-15T01:17:28.157Z,8.47
2017-04-15T01:18:29.135Z,7.78
2017-04-15T01:19:29.354Z,6.07
2017-04-15T01:20:29.564Z,10.47
2017-04-15T01:21:29.781Z,8.13
2017-04-15T01:22:30.052Z,7.75
2017-04-15T01:23:30.286Z,14.62
2017-04-15T01:24:30.524Z,12.13
2017-04-15T01:25:30.754Z,11.48
2017-04-15T01:26:30.972Z,10.25
2017-04-15T01:27:31.253Z,8.38
2017-04-15T01:28:31.542Z,10.45
2017-04-15T01:29:31.821Z,8.58
2017-04-15T01:30:32.099Z,10.65
2017-04-15T01:31:33.334Z,11.85
2017-04-15T01:32:33.585Z,8.22
2017-04-15T01:33:33.818Z,11.18
2017-04-15T01:34:34.369Z,9.48
2017-04-15T01:35:34.606Z,13.22
2017-04-15T01:36:34.948Z,11.48
2017-04-15T01:37:35.225Z,12.13
2017-04-15T01:38:35.770Z,11.57
2017-04-15T01:39:36.019Z,9.85
2017-04-15T01:40:36.584Z,11.83
2017-04-15T01:41:36.885Z,6.30
2017-04-15T01:42:37.185Z,10.75
2017-04-15T01:43:37.438Z,7.53
2017-04-15T01:44:37.700Z,11.62
2017-04-15T01:45:38.018Z,9.47
2017-04-15T01:46:38.247Z,11.22
2017-04-15T01:47:38.605Z,12.15
2017-04-15T01:48:38.829Z,12.67
2017-04-15T01:49:39.273Z,14.07
2017-04-15T01:50:39.809Z,14.10
2017-04-15T01:51:40.099Z,9.55
2017-04-15T01:52:40.465Z,12.35
2017-04-15T01:53:40.718Z,15.43
2017-04-15T01:54:41.108Z,12.68
2017-04-15T01:55:41.389Z,14.82
2017-04-15T01:56:41.679Z,20.37
2017-04-15T01:57:42.326Z,13.08
2017-04-15T01:58:42.814Z,13.03
2017-04-15T01:59:43.093Z,13.00
2017-04-15T02:00:43.388Z,12.30
2017-04-15T02:01:43.887Z,13.37
2017-04-15T02:02:44.425Z,12.65
2017-04-15T02:03:44.653Z,12.70
2017-04-15T02:04:45.005Z,15.23
2017-04-15T02:05:45.356Z,15.63
2017-04-15T02:06:45.593Z,12.27
2017-04-15T02:07:45.952Z,16.03
2017-04-15T02:08:46.212Z,13.65
2017-04-15T02:09:46.488Z,15.40
2017-04-15T02:10:46.744Z,21.02
2017-04-15T02:11:47.006Z,13.22
2017-04-15T02:12:47.286Z,16.32
2017-04-15T02:13:47.538Z,17.33
2017-04-15T02:14:47.838Z,15.60
2017-04-15T02:15:48.062Z,11.47
2017-04-15T02:16:48.346Z,16.00
2017-04-15T02:17:48.671Z,13.20
2017-04-15T02:18:48.969Z,12.30
2017-04-15T02:19:49.205Z,12.35
2017-04-15T02:20:49.571Z,16.42
2017-04-15T02:21:49.851Z,15.88
2017-04-15T02:22:50.114Z,15.82
2017-04-15T02:23:50.621Z,12.97
2017-04-15T02:24:50.844Z,16.08
2017-04-15T02:25:51.069Z,16.60
2017-04-15T02:26:51.301Z,14.97
2017-04-15T02:27:51.548Z,18.58
2017-04-15T02:28:51.794Z,17.78
2017-04-15T02:29:52.127Z,15.67
2017-04-15T02:30:52.482Z,16.77
2017-04-15T02:31:52.802Z,18.23
2017-04-15T02:32:53.878Z,16.05
2017-04-15T02:33:54.093Z,16.62
2017-04-15T02:34:54.378Z,15.65
2017-04-15T02:35:54.730Z,14.23
2017-04-15T02:36:54.998Z,18.82
2017-04-15T02:37:55.269Z,15.55
2017-04-15T02:38:55.525Z,11.98
2017-04-15T02:39:55.849Z,17.73
2017-04-15T02:40:56.196Z,16.92
2017-04-15T02:41:56.446Z,13.43
2017-04-15T02:42:56.729Z,16.07
2017-04-15T02:43:57.185Z,15.05
2017-04-15T02:44:57.478Z,13.88
2017-04-15T02:45:57.797Z,15.50
2017-04-15T02:46:58.117Z,13.37
2017-04-15T02:47:58.390Z,14.83
2017-04-15T02:48:58.623Z,15.78
2017-04-15T02:49:58.885Z,15.15
2017-04-15T02:50:59.155Z,13.70
2017-04-15T02:51:59.393Z,18.45
2017-04-15T02:52:59.658Z,10.42
2017-04-15T02:53:59.898Z,15.03
2017-04-15T02:55:00.373Z,13.70
2017-04-15T02:56:00.762Z,16.80
2017-04-15T02:57:01.157Z,17.02
2017-04-15T02:58:01.417Z,15.28
2017-04-15T02:59:01.911Z,16.12
2017-04-15T03:00:02.359Z,14.87
2017-04-15T03:01:02.645Z,14.97
2017-04-15T03:02:03.283Z,13.00
2017-04-15T03:03:03.741Z,17.13
2017-04-15T03:04:04.273Z,15.95
2017-04-15T03:05:05.221Z,17.27
2017-04-15T03:06:05.460Z,14.97
2017-04-15T03:07:05.688Z,17.18
2017-04-15T03:08:05.922Z,13.88
2017-04-15T03:09:07.056Z,13.88
2017-04-15T03:10:07.346Z,12.40
2017-04-15T03:11:07.588Z,14.88
2017-04-15T03:12:07.882Z,15.20
2017-04-15T03:13:08.174Z,16.13
2017-04-15T03:14:08.420Z,13.15
2017-04-15T03:15:09.600Z,15.82
2017-04-15T03:16:09.876Z,18.20
2017-04-15T03:17:10.127Z,13.00
2017-04-15T03:18:10.376Z,16.30
2017-04-15T03:19:10.904Z,10.82
2017-04-15T03:20:11.121Z,15.40
2017-04-15T03:21:11.357Z,15.10
2017-04-15T03:22:11.757Z,16.38
2017-04-15T03:23:12.251Z,15.17
2017-04-15T03:24:12.758Z,15.70
2017-04-15T03:25:13.017Z,14.08
2017-04-15T03:26:13.221Z,15.03
2017-04-15T03:27:13.520Z,15.05
2017-04-15T03:28:13.793Z,18.03
2017-04-15T03:29:14.037Z,15.30
2017-04-15T03:30:14.278Z,14.90
2017-04-15T03:31:15.629Z,12.15
2017-04-15T03:32:15.903Z,10.82
2017-04-15T03:33:16.618Z,13.78
2017-04-15T03:34:17.036Z,15.75
2017-04-15T03:35:17.557Z,13.17
2017-04-15T03:36:17.838Z,11.78
2017-04-15T03:37:18.793Z,13.45
2017-04-15T03:38:19.209Z,16.68
2017-04-15T03:39:19.671Z,14.73
2017-04-15T03:40:19.909Z,15.43
2017-04-15T03:41:20.147Z,14.30
2017-04-15T03:42:20.569Z,14.78
2017-04-15T03:43:20.889Z,13.18
2017-04-15T03:44:21.234Z,13.40
2017-04-15T03:45:21.616Z,17.07
2017-04-15T03:46:21.866Z,14.15
2017-04-15T03:47:22.178Z,17.48
2017-04-15T03:48:22.923Z,16.18
2017-04-15T03:49:23.298Z,15.55
2017-04-15T03:50:23.918Z,15.37
2017-04-15T03:51:24.422Z,11.87
2017-04-15T03:52:24.724Z,14.48
2017-04-15T03:53:25.074Z,12.82
2017-04-15T03:54:25.347Z,16.12
2017-04-15T03:55:25.585Z,18.12
2017-04-15T03:56:26.730Z,13.57
2017-04-15T03:57:26.943Z,13.75
2017-04-15T03:58:27.468Z,10.55
2017-04-15T03:59:27.792Z,16.22
2017-04-15T04:00:28.051Z,14.63
2017-04-15T04:01:28.333Z,14.03
2017-04-15T04:02:28.674Z,14.58
2017-04-15T04:03:29.109Z,12.38
2017-04-15T04:04:29.376Z,16.92
2017-04-15T04:05:29.646Z,11.43
2017-04-15T04:06:29.885Z,12.75
2017-04-15T04:07:30.141Z,12.27
2017-04-15T04:08:30.545Z,15.55
2017-04-15T04:09:30.770Z,15.18
2017-04-15T04:10:31.054Z,14.73
2017-04-15T04:11:31.322Z,12.55
2017-04-15T04:12:32.311Z,12.03
2017-04-15T04:13:32.796Z,13.75
2017-04-15T04:14:33.040Z,12.17
2017-04-15T04:15:33.290Z,16.10
2017-04-15T04:16:33.517Z,20.75
2017-04-15T04:17:35.252Z,10.42
2017-04-15T04:18:35.778Z,11.55
2017-04-15T04:19:36.036Z,11.47
2017-04-15T04:20:36.265Z,11.77
2017-04-15T04:21:36.474Z,12.77
2017-04-15T04:22:36.685Z,11.45
2017-04-15T04:23:36.948Z,13.42
2017-04-15T04:24:37.146Z,15.55
2017-04-15T04:25:37.411Z,13.87
2017-04-15T04:26:37.619Z,11.17
2017-04-15T04:27:37.985Z,15.02
2017-04-15T04:28:38.293Z,15.55
2017-04-15T04:29:38.482Z,16.73
2017-04-15T04:30:38.704Z,19.83
2017-04-15T04:31:38.903Z,19.72
2017-04-15T04:32:39.130Z,12.47
2017-04-15T04:33:39.668Z,13.07
2017-04-15T04:34:39.889Z,13.98
2017-04-15T04:35:40.122Z,14.23
2017-04-15T04:36:40.342Z,12.70
2017-04-15T04:37:40.839Z,14.90
2017-04-15T04:38:41.293Z,16.42
2017-04-15T04:39:41.982Z,15.42
2017-04-15T04:40:42.242Z,14.93
2017-04-15T04:41:43.000Z,14.48
2017-04-15T04:42:43.688Z,12.67
2017-04-15T04:43:44.410Z,17.35
2017-04-15T04:44:44.753Z,16.00
2017-04-15T04:45:45.078Z,13.67
2017-04-15T04:46:45.602Z,15.02
2017-04-15T04:47:45.972Z,16.53
2017-04-15T04:48:46.363Z,17.18
2017-04-15T04:49:46.608Z,16.00
2017-04-15T04:50:46.829Z,12.87
2017-04-15T04:51:47.090Z,15.02
2017-04-15T04:52:48.041Z,14.90
2017-04-15T04:53:48.298Z,20.60
2017-04-15T04:54:48.529Z,13.35
2017-04-15T04:55:48.744Z,13.13
2017-04-15T04:56:48.972Z,15.20
2017-04-15T04:57:49.976Z,11.47
2017-04-15T04:58:50.309Z,15.03
2017-04-15T04:59:50.513Z,12.40
2017-04-15T05:00:50.735Z,18.25
2017-04-15T05:01:50.954Z,12.38
2017-04-15T05:02:51.189Z,13.60
2017-04-15T05:03:51.530Z,13.75
2017-04-15T05:04:51.733Z,14.08
2017-04-15T05:05:51.936Z,16.58
2017-04-15T05:06:52.241Z,12.03
2017-04-15T05:07:53.215Z,18.65
2017-04-15T05:08:53.793Z,15.38
2017-04-15T05:09:54.003Z,14.85
2017-04-15T05:10:54.259Z,10.90
2017-04-15T05:11:54.499Z,16.50
2017-04-15T05:12:54.886Z,12.50
2017-04-15T05:13:55.167Z,12.27
2017-04-15T05:14:55.422Z,16.30
2017-04-15T05:15:55.646Z,17.23
2017-04-15T05:16:55.983Z,12.77
2017-04-15T05:17:56.231Z,14.53
2017-04-15T05:18:56.527Z,11.53
2017-04-15T05:19:56.805Z,17.52
2017-04-15T05:20:57.129Z,13.72
2017-04-15T05:21:57.384Z,14.70
2017-04-15T05:22:57.608Z,15.12
2017-04-15T05:23:57.870Z,15.60
2017-04-15T05:24:58.821Z,14.43
2017-04-15T05:25:59.109Z,15.47
2017-04-15T05:26:59.339Z,15.08
2017-04-15T05:27:59.575Z,12.23
2017-04-15T05:28:59.943Z,13.33
2017-04-15T05:30:00.153Z,13.33
2017-04-15T05:31:00.578Z,14.72
2017-04-15T05:32:00.811Z,14.95
2017-04-15T05:33:01.122Z,14.33
2017-04-15T05:34:02.448Z,13.40
2017-04-15T05:35:02.692Z,16.32
2017-04-15T05:36:02.901Z,17.12
2017-04-15T05:37:03.349Z,15.27
2017-04-15T05:38:03.802Z,13.68
2017-04-15T05:39:04.765Z,15.33
2017-04-15T05:40:05.014Z,16.30
2017-04-15T05:41:05.307Z,15.32
2017-04-15T05:42:05.699Z,12.75
2017-04-15T05:43:05.946Z,15.25
2017-04-15T05:44:06.217Z,14.03
2017-04-15T05:45:06.790Z,14.72
2017-04-15T05:46:07.025Z,15.85
2017-04-15T05:47:07.255Z,14.72
2017-04-15T05:48:07.568Z,16.07
2017-04-15T05:49:07.059Z,14.93
2017-04-15T05:50:07.280Z,15.02
2017-04-15T05:51:06.746Z,16.13
2017-04-15T05:52:07.025Z,15.45
2017-04-15T05:53:07.254Z,14.52
2017-04-15T05:54:07.586Z,18.17
2017-04-15T05:55:07.833Z,15.33
2017-04-15T05:56:08.094Z,17.30
2017-04-15T05:57:08.474Z,15.62
2017-04-15T05:58:08.708Z,16.93
2017-04-15T05:59:08.984Z,17.52
2017-04-15T06:00:09.265Z,15.45
2017-04-15T06:01:09.481Z,15.32
2017-04-15T06:02:09.711Z,13.03
2017-04-15T06:03:09.983Z,15.88
2017-04-15T06:04:10.292Z,15.85
2017-04-15T06:05:10.518Z,14.32
2017-04-15T06:06:10.770Z,16.53
2017-04-15T06:07:11.890Z,17.15
2017-04-15T06:08:12.113Z,14.28
2017-04-15T06:09:13.166Z,13.88
2017-04-15T06:10:13.419Z,21.77
2017-04-15T06:11:13.757Z,18.30
2017-04-15T06:12:13.986Z,18.35
2017-04-15T06:13:14.219Z,13.27
2017-04-15T06:14:14.487Z,14.85
2017-04-15T06:15:14.724Z,14.13
2017-04-15T06:16:14.973Z,16.65
2017-04-15T06:17:15.197Z,18.15
2017-04-15T06:18:15.533Z,14.90
2017-04-15T06:19:16.158Z,18.73
2017-04-15T06:20:16.453Z,12.77
2017-04-15T06:21:16.694Z,23.97
2017-04-15T06:22:16.920Z,15.10
2017-04-15T06:23:17.306Z,15.00
2017-04-15T06:24:17.627Z,19.53
2017-04-15T06:25:18.890Z,15.38
2017-04-15T06:26:19.137Z,16.93
2017-04-15T06:27:19.598Z,11.83
2017-04-15T06:28:19.844Z,13.52
2017-04-15T06:29:20.519Z,14.88
2017-04-15T06:30:20.741Z,16.30
2017-04-15T06:31:21.917Z,13.27
2017-04-15T06:32:22.209Z,14.42
2017-04-15T06:33:22.465Z,16.30
2017-04-15T06:34:23.047Z,19.17
2017-04-15T06:35:23.328Z,16.62
2017-04-15T06:36:23.583Z,16.33
2017-04-15T06:37:23.975Z,15.17
2017-04-15T06:38:24.496Z,14.03
2017-04-15T06:39:25.255Z,12.40
2017-04-15T06:40:25.681Z,17.03
2017-04-15T06:41:26.162Z,12.32
2017-04-15T06:42:26.438Z,14.05
2017-04-15T06:43:27.497Z,13.62
2017-04-15T06:44:27.925Z,12.67
2017-04-15T06:45:28.304Z,14.82
2017-04-15T06:46:28.599Z,14.47
2017-04-15T06:47:28.889Z,12.85
2017-04-15T06:48:29.195Z,15.40
2017-04-15T06:49:29.523Z,14.28
2017-04-15T06:50:29.902Z,13.03
2017-04-15T06:51:30.146Z,14.85
2017-04-15T06:52:30.386Z,12.52
2017-04-15T06:53:30.630Z,12.95
2017-04-15T06:54:31.001Z,14.87
2017-04-15T06:55:31.261Z,15.50
2017-04-15T06:56:31.502Z,15.33
2017-04-15T06:57:31.789Z,11.45
2017-04-15T06:58:31.273Z,12.42
2017-04-15T06:59:31.553Z,13.82
2017-04-15T07:00:31.848Z,11.85
2017-04-15T07:01:32.167Z,14.23
2017-04-15T07:02:32.523Z,10.98
2017-04-15T07:03:32.801Z,17.40
2017-04-15T07:04:33.158Z,12.23
2017-04-15T07:05:33.400Z,16.60
2017-04-15T07:06:33.657Z,11.87
2017-04-15T07:07:33.919Z,13.95
2017-04-15T07:08:35.474Z,15.08
2017-04-15T07:09:35.802Z,11.67
2017-04-15T07:10:36.250Z,13.02
2017-04-15T07:11:36.581Z,12.82
2017-04-15T07:12:36.925Z,12.05
2017-04-15T07:13:37.253Z,15.67
2017-04-15T07:14:37.524Z,15.27
2017-04-15T07:15:37.777Z,13.83
2017-04-15T07:16:38.022Z,11.73
2017-04-15T07:17:38.283Z,13.58
2017-04-15T07:18:38.518Z,13.13
2017-04-15T07:19:38.867Z,15.28
2017-04-15T07:20:39.168Z,12.45
2017-04-15T07:21:39.423Z,13.68
2017-04-15T07:22:39.845Z,14.97
2017-04-15T07:23:40.090Z,14.18
2017-04-15T07:24:40.491Z,13.03
2017-04-15T07:25:40.730Z,13.63
2017-04-15T07:26:40.949Z,10.32
2017-04-15T07:27:41.225Z,13.25
2017-04-15T07:28:41.509Z,13.47
2017-04-15T07:29:41.798Z,12.72
2017-04-15T07:30:42.067Z,13.92
2017-04-15T07:31:42.385Z,10.88
2017-04-15T07:32:42.662Z,10.87
2017-04-15T07:33:42.899Z,10.78
2017-04-15T07:34:43.541Z,13.75
2017-04-15T07:35:44.025Z,11.00
2017-04-15T07:36:44.377Z,13.92
2017-04-15T07:37:45.097Z,14.03
2017-04-15T07:38:45.431Z,11.23
2017-04-15T07:39:45.885Z,17.40
2017-04-15T07:40:46.353Z,11.72
2017-04-15T07:41:47.078Z,11.70
2017-04-15T07:42:47.330Z,11.32
2017-04-15T07:43:47.601Z,10.07
2017-04-15T07:44:47.882Z,11.12
2017-04-15T07:45:48.330Z,16.20
2017-04-15T07:46:48.653Z,17.87
2017-04-15T07:47:48.949Z,12.05
2017-04-15T07:48:49.223Z,10.47
2017-04-15T07:49:49.502Z,12.68
2017-04-15T07:50:49.769Z,13.70
2017-04-15T07:51:49.236Z,10.53
2017-04-15T07:52:49.477Z,12.90
2017-04-15T07:53:49.753Z,11.43
2017-04-15T07:54:50.033Z,13.77
2017-04-15T07:55:50.269Z,11.85
2017-04-15T07:56:50.606Z,10.07
2017-04-15T07:57:50.882Z,10.07
2017-04-15T07:58:52.007Z,9.07
2017-04-15T07:59:52.403Z,13.88
2017-04-15T08:00:52.617Z,11.83
2017-04-15T08:01:52.881Z,17.77
2017-04-15T08:02:53.150Z,12.72
2017-04-15T08:03:53.444Z,10.98
2017-04-15T08:04:54.084Z,9.57
2017-04-15T08:05:53.582Z,9.22
2017-04-15T08:06:53.821Z,11.67
2017-04-15T08:07:54.062Z,12.78
2017-04-15T08:08:54.281Z,9.35
2017-04-15T08:09:54.648Z,8.85
2017-04-15T08:10:54.985Z,12.07
2017-04-15T08:11:55.206Z,9.17
2017-04-15T08:12:55.573Z,13.00
2017-04-15T08:13:56.226Z,8.28
2017-04-15T08:14:56.573Z,12.55
2017-04-15T08:15:56.815Z,11.85
2017-04-15T08:16:57.102Z,12.38
2017-04-15T08:17:57.376Z,10.55
2017-04-15T08:18:57.812Z,12.18
2017-04-15T08:19:58.122Z,9.07
2017-04-15T08:20:58.393Z,9.58
2017-04-15T08:21:58.645Z,8.65
2017-04-15T08:22:58.860Z,11.02
2017-04-15T08:23:59.113Z,8.87
2017-04-15T08:24:59.786Z,9.00
2017-04-15T08:26:00.173Z,10.27
2017-04-15T08:27:01.157Z,7.30
2017-04-15T08:28:01.362Z,8.45
2017-04-15T08:29:01.626Z,8.97
2017-04-15T08:30:02.701Z,8.85
2017-04-15T08:31:03.258Z,6.92
2017-04-15T08:32:03.508Z,8.22
2017-04-15T08:33:03.793Z,8.38
2017-04-15T08:34:04.191Z,8.13
2017-04-15T08:35:04.475Z,8.03
2017-04-15T08:36:05.060Z,7.90
2017-04-15T08:37:05.491Z,7.55
2017-04-15T08:38:05.961Z,5.72
2017-04-15T08:39:07.041Z,10.27
2017-04-15T08:40:07.561Z,8.27
2017-04-15T08:41:07.786Z,5.97
2017-04-15T08:42:08.087Z,5.73
2017-04-15T08:43:08.337Z,7.93
2017-04-15T08:44:08.644Z,6.38
2017-04-15T08:45:08.961Z,5.48
2017-04-15T08:46:09.185Z,7.60
2017-04-15T08:47:09.426Z,7.50
2017-04-15T08:48:09.818Z,6.72
2017-04-15T08:49:10.060Z,5.55
2017-04-15T08:50:10.399Z,8.23
2017-04-15T08:51:10.718Z,8.92
2017-04-15T08:52:11.286Z,5.82
2017-04-15T08:53:12.281Z,7.22
2017-04-15T08:54:13.307Z,5.75
2017-04-15T08:55:13.731Z,7.70
2017-04-15T08:56:14.065Z,6.53
2017-04-15T08:57:14.413Z,5.35
2017-04-15T08:58:14.842Z,7.12
2017-04-15T08:59:15.258Z,7.62
2017-04-15T09:00:15.686Z,6.48
2017-04-15T09:01:15.905Z,5.58
2017-04-15T09:02:16.204Z,5.62
2017-04-15T09:03:16.540Z,6.45
2017-04-15T09:04:16.848Z,5.55
2017-04-15T09:05:17.190Z,5.12
2017-04-15T09:06:17.405Z,6.52
2017-04-15T09:07:17.742Z,6.68
2017-04-15T09:08:17.993Z,5.38
2017-04-15T09:09:18.347Z,6.53
2017-04-15T09:10:18.615Z,5.95
2017-04-15T09:11:19.462Z,7.08
2017-04-15T09:12:19.736Z,6.02
2017-04-15T09:13:20.102Z,6.68
2017-04-15T09:14:20.356Z,4.92
2017-04-15T09:15:21.745Z,4.05
2017-04-15T09:16:21.997Z,4.17
2017-04-15T09:17:22.713Z,4.75
2017-04-15T09:18:22.957Z,4.08
2017-04-15T09:19:23.231Z,4.32
2017-04-15T09:20:23.619Z,4.72
2017-04-15T09:21:25.629Z,3.32
2017-04-15T09:22:25.949Z,4.37
2017-04-15T09:23:26.437Z,4.83
2017-04-15T09:24:27.253Z,3.83
2017-04-15T09:25:27.110Z,4.08
2017-04-15T09:26:26.955Z,3.82
2017-04-15T09:27:27.962Z,5.43
2017-04-15T09:28:28.234Z,4.97
2017-04-15T09:29:28.545Z,4.02
2017-04-15T09:30:28.864Z,3.53
2017-04-15T09:31:29.101Z,4.97
2017-04-15T09:32:29.390Z,7.07
2017-04-15T09:33:29.625Z,4.32
2017-04-15T09:34:30.007Z,3.68
2017-04-15T09:35:30.285Z,3.90
2017-04-15T09:36:30.526Z,3.88
2017-04-15T09:37:32.106Z,6.28
2017-04-15T09:38:32.663Z,5.85
2017-04-15T09:39:32.876Z,4.37
2017-04-15T09:40:33.127Z,6.15
2017-04-15T09:41:33.380Z,3.80
2017-04-15T09:42:33.647Z,4.48
2017-04-15T09:43:33.906Z,4.50
2017-04-15T09:44:34.129Z,3.67
2017-04-15T09:45:34.389Z,3.15
2017-04-15T09:46:34.621Z,4.63
2017-04-15T09:47:35.198Z,3.73
2017-04-15T09:48:35.422Z,3.53
2017-04-15T09:49:35.785Z,3.67
2017-04-15T09:50:36.033Z,4.58
2017-04-15T09:51:36.310Z,4.97
2017-04-15T09:52:36.646Z,4.40
2017-04-15T09:53:36.882Z,4.05
2017-04-15T09:54:37.149Z,5.87
2017-04-15T09:55:37.478Z,5.98
2017-04-15T09:56:37.749Z,3.15
2017-04-15T09:57:38.018Z,3.35
2017-04-15T09:58:38.253Z,5.23
2017-04-15T09:59:38.534Z,5.90
2017-04-15T10:00:38.813Z,2.80
2017-04-15T10:01:39.041Z,2.27
2017-04-15T10:02:39.363Z,3.20
2017-04-15T10:03:39.622Z,3.12
2017-04-15T10:04:39.844Z,3.93
2017-04-15T10:05:40.105Z,2.87
2017-04-15T10:06:40.622Z,3.00
2017-04-15T10:07:40.862Z,3.65
2017-04-15T10:08:41.281Z,2.07
2017-04-15T10:09:41.565Z,2.53
2017-04-15T10:10:41.885Z,5.37
2017-04-15T10:11:42.089Z,2.60
2017-04-15T10:12:42.321Z,3.12
2017-04-15T10:13:42.553Z,2.12
2017-04-15T10:14:42.823Z,1.72
2017-04-15T10:15:43.790Z,1.83
2017-04-15T10:16:44.065Z,3.97
2017-04-15T10:17:44.278Z,2.00
2017-04-15T10:18:44.543Z,2.97
2017-04-15T10:19:44.980Z,3.17
2017-04-15T10:20:45.229Z,2.90
2017-04-15T10:21:46.042Z,2.73
2017-04-15T10:22:46.534Z,2.80
2017-04-15T10:23:47.003Z,4.25
2017-04-15T10:24:47.420Z,4.12
2017-04-15T10:25:47.989Z,2.70
2017-04-15T10:26:48.221Z,2.55
2017-04-15T10:27:48.440Z,3.38
2017-04-15T10:28:48.641Z,2.05
2017-04-15T10:29:48.874Z,4.77
2017-04-15T10:30:49.237Z,2.32
2017-04-15T10:31:49.789Z,3.38
2017-04-15T10:32:50.034Z,2.92
2017-04-15T10:33:50.241Z,2.43
2017-04-15T10:34:50.553Z,3.68
2017-04-15T10:35:51.193Z,2.52
2017-04-15T10:36:51.608Z,2.80
2017-04-15T10:37:52.861Z,2.80
2017-04-15T10:38:53.149Z,2.92
2017-04-15T10:39:53.370Z,3.08
2017-04-15T10:40:53.624Z,3.87
2017-04-15T10:41:53.845Z,3.47
2017-04-15T10:42:54.081Z,2.58
2017-04-15T10:43:54.353Z,3.90
2017-04-15T10:44:54.593Z,9.70
2017-04-15T10:45:55.084Z,5.02
2017-04-15T10:46:55.325Z,4.83
2017-04-15T10:47:55.617Z,4.33
2017-04-15T10:48:55.865Z,3.90
2017-04-15T10:49:56.234Z,5.83
2017-04-15T10:50:56.581Z,6.22
2017-04-15T10:51:56.891Z,4.72
2017-04-15T10:52:57.179Z,6.30
2017-04-15T10:53:57.546Z,4.40
2017-04-15T10:54:57.832Z,5.18
2017-04-15T10:55:58.168Z,2.90
2017-04-15T10:56:58.521Z,11.02
2017-04-15T10:57:58.809Z,6.82
2017-04-15T10:58:59.077Z,4.47
2017-04-15T10:59:59.307Z,42.93
2017-04-15T11:00:59.782Z,21.93
2017-04-15T11:02:00.098Z,13.52
2017-04-15T11:03:00.370Z,5.30
2017-04-15T11:04:00.632Z,3.62
2017-04-15T11:05:00.898Z,4.12
2017-04-15T11:06:01.205Z,4.17
2017-04-15T11:07:01.480Z,2.73
2017-04-15T11:08:01.809Z,2.68
2017-04-15T11:09:02.061Z,4.27
2017-04-15T11:10:02.476Z,4.50
2017-04-15T11:11:02.802Z,3.27
2017-04-15T11:12:03.070Z,4.27
2017-04-15T11:13:02.562Z,3.25
2017-04-15T11:14:02.873Z,4.50
2017-04-15T11:15:03.192Z,2.37
2017-04-15T11:16:03.458Z,2.70
2017-04-15T11:17:03.718Z,3.28
2017-04-15T11:18:03.987Z,7.02
2017-04-15T11:19:04.285Z,6.77
2017-04-15T11:20:04.593Z,4.47
2017-04-15T11:21:04.925Z,5.73
2017-04-15T11:22:05.205Z,4.27
2017-04-15T11:23:05.594Z,4.50
2017-04-15T11:24:06.914Z,2.88
2017-04-15T11:25:07.333Z,2.27
2017-04-15T11:26:08.008Z,3.25
2017-04-15T11:27:08.315Z,2.00
2017-04-15T11:28:08.703Z,3.42
2017-04-15T11:29:08.976Z,2.07
2017-04-15T11:30:09.225Z,3.45
2017-04-15T11:31:09.556Z,3.88
2017-04-15T11:32:09.813Z,4.75
2017-04-15T11:33:10.154Z,2.00
2017-04-15T11:34:10.410Z,2.22
2017-04-15T11:35:10.821Z,2.05
2017-04-15T11:36:11.094Z,2.07
2017-04-15T11:37:12.115Z,2.38
2017-04-15T11:38:12.359Z,1.90
2017-04-15T11:39:12.647Z,49.30
2017-04-15T11:40:12.888Z,11.38
2017-04-15T11:41:13.170Z,5.20
2017-04-15T11:42:13.411Z,2.23
2017-04-15T11:43:13.908Z,4.50
2017-04-15T11:44:14.131Z,3.42
2017-04-15T11:45:14.377Z,5.07
2017-04-15T11:46:14.685Z,1.58
2017-04-15T11:47:14.977Z,2.27
2017-04-15T11:48:15.369Z,2.67
2017-04-15T11:49:15.664Z,1.93
2017-04-15T11:50:15.913Z,5.35
2017-04-15T11:51:16.181Z,1.92
2017-04-15T11:52:16.477Z,1.83
2017-04-15T11:53:16.709Z,2.30
2017-04-15T11:54:17.035Z,1.85
2017-04-15T11:55:17.282Z,2.20
2017-04-15T11:56:17.669Z,1.55
2017-04-15T11:57:18.010Z,2.70
2017-04-15T11:58:18.250Z,2.15
2017-04-15T11:59:18.541Z,2.10
2017-04-15T12:00:18.818Z,1.68
2017-04-15T12:01:19.162Z,1.52
2017-04-15T12:02:19.381Z,2.07
2017-04-15T12:03:19.617Z,1.88
2017-04-15T12:04:19.860Z,1.60
2017-04-15T12:05:20.122Z,3.62
2017-04-15T12:06:20.416Z,1.75
2017-04-15T12:07:20.669Z,1.60
2017-04-15T12:08:20.930Z,1.43
2017-04-15T12:09:21.531Z,2.00
2017-04-15T12:10:21.861Z,2.22
2017-04-15T12:11:22.301Z,1.93
2017-04-15T12:12:22.787Z,1.68
2017-04-15T12:13:23.683Z,2.12
2017-04-15T12:14:23.225Z,1.97
2017-04-15T12:15:23.859Z,1.72
2017-04-15T12:16:24.242Z,2.37
2017-04-15T12:17:25.085Z,1.23
2017-04-15T12:18:25.367Z,1.78
2017-04-15T12:19:26.451Z,2.30
2017-04-15T12:20:26.768Z,2.03
2017-04-15T12:21:27.222Z,2.97
2017-04-15T12:22:27.605Z,1.53
2017-04-15T12:23:28.107Z,2.57
2017-04-15T12:24:28.670Z,2.15
2017-04-15T12:25:29.174Z,1.85
2017-04-15T12:26:29.485Z,1.63
2017-04-15T12:27:29.817Z,1.82
2017-04-15T12:28:30.042Z,2.55
2017-04-15T12:29:30.468Z,3.65
2017-04-15T12:30:30.779Z,1.72
2017-04-15T12:31:31.317Z,3.90
2017-04-15T12:32:30.818Z,1.87
2017-04-15T12:33:31.064Z,2.02
2017-04-15T12:34:31.334Z,2.87
2017-04-15T12:35:31.581Z,3.53
2017-04-15T12:36:31.877Z,3.53
2017-04-15T12:37:32.185Z,1.65
2017-04-15T12:38:32.713Z,2.68
2017-04-15T12:39:33.340Z,2.25
2017-04-15T12:40:33.577Z,2.03
2017-04-15T12:41:33.882Z,1.63
2017-04-15T12:42:34.212Z,2.10
2017-04-15T12:43:34.462Z,2.80
2017-04-15T12:44:33.961Z,2.23
2017-04-15T12:45:33.455Z,2.32
2017-04-15T12:46:33.765Z,2.38
2017-04-15T12:47:33.343Z,2.90
2017-04-15T12:48:33.598Z,1.45
2017-04-15T12:49:35.232Z,2.87
2017-04-15T12:50:35.518Z,1.68
2017-04-15T12:51:35.829Z,1.83
2017-04-15T12:52:36.092Z,1.60
2017-04-15T12:53:36.516Z,3.05
2017-04-15T12:54:36.773Z,3.35
2017-04-15T12:55:37.085Z,1.73
2017-04-15T12:56:36.741Z,2.10
2017-04-15T12:57:37.009Z,1.98
2017-04-15T12:58:36.498Z,2.47
2017-04-15T12:59:36.769Z,4.32
2017-04-15T13:00:37.041Z,2.50
2017-04-15T13:01:37.342Z,4.03
2017-04-15T13:02:37.607Z,4.37
2017-04-15T13:03:37.856Z,1.88
2017-04-15T13:04:37.350Z,3.85
2017-04-15T13:05:36.834Z,2.38
2017-04-15T13:06:37.129Z,3.33
2017-04-15T13:07:37.380Z,2.37
2017-04-15T13:08:37.839Z,2.38
2017-04-15T13:09:38.138Z,4.20